Time;durP1;ratioP1;P1;durP2;ratioP2;P2;SDS_P1;SDS_P2;PMS_P1;PMS_P2;Temp;Humidity;BMP_temperature;BMP_pressure;BME280_temperature;BME280_humidity;BME280_pressure;Samples;Min_cycle;Max_cycle;Signal;HPM_P1;HPM_P2
2021/05/23 00:01:11;;;;;;;13.18;6.53;;;;;;;;;;5077673;28;20028;-91
2021/05/23 00:03:37;;;;;;;9.38;6.75;;;;;;;;;;5078459;28;20027;-91
2021/05/23 00:06:03;;;;;;;10.93;6.78;;;;;;;;;;5077747;28;20291;-91
2021/05/23 00:08:30;;;;;;;10.25;7.38;;;;;;;;;;5078660;28;20145;-91
2021/05/23 00:11:07;;;;;;;10.30;6.95;;;;;;;;;;5078551;28;20017;-91
2021/05/23 00:13:38;;;;;;;9.90;7.07;;;;;;;;;;5077432;28;20066;-91
2021/05/23 00:16:05;;;;;;;10.70;7.13;;;;;;;;;;5078496;28;20033;-90
2021/05/23 00:18:33;;;;;;;9.73;7.00;;;;;;;;;;5077953;28;20044;-90
2021/05/23 00:21:00;;;;;;;11.82;8.02;;;;;;;;;;5077132;28;20048;-90
2021/05/23 00:23:26;;;;;;;12.05;7.40;;;;;;;;;;5078375;28;20024;-90
2021/05/23 00:25:52;;;;;;;13.20;7.57;;;;;;;;;;5077073;28;20028;-91
2021/05/23 00:28:19;;;;;;;12.68;7.53;;;;;;;;;;5077725;28;20023;-91
2021/05/23 00:30:45;;;;;;;14.32;6.68;;;;;;;;;;5077206;28;20028;-91
2021/05/23 00:33:11;;;;;;;11.23;7.88;;;;;;;;;;5077826;28;20025;-90
2021/05/23 00:35:39;;;;;;;10.50;7.28;;;;;;;;;;5078228;28;20031;-90
2021/05/23 00:38:05;;;;;;;12.57;7.80;;;;;;;;;;5078185;28;20327;-89
2021/05/23 00:40:32;;;;;;;12.82;7.45;;;;;;;;;;5078284;28;20020;-91
2021/05/23 00:42:59;;;;;;;11.60;7.43;;;;;;;;;;5078087;28;20034;-90
2021/05/23 00:45:25;;;;;;;11.85;6.97;;;;;;;;;;5077908;28;20023;-90
2021/05/23 00:47:51;;;;;;;13.45;7.20;;;;;;;;;;5077946;28;20108;-89
2021/05/23 00:50:19;;;;;;;9.57;7.45;;;;;;;;;;5077975;28;20025;-90
2021/05/23 00:52:45;;;;;;;11.82;6.82;;;;;;;;;;5077760;28;20411;-90
2021/05/23 00:55:11;;;;;;;14.20;7.03;;;;;;;;;;5076700;28;20024;-90
2021/05/23 00:57:38;;;;;;;8.77;6.60;;;;;;;;;;5076986;28;20032;-90
2021/05/23 01:00:04;;;;;;;8.93;6.38;;;;;;;;;;5078055;28;20078;-91
2021/05/23 01:02:45;;;;;;;9.93;6.90;;;;;;;;;;5077651;28;20391;-90
2021/05/23 01:05:13;;;;;;;11.50;6.85;;;;;;;;;;5077570;28;20020;-90
2021/05/23 01:07:40;;;;;;;9.07;7.15;;;;;;;;;;5078042;28;20475;-90
2021/05/23 01:10:08;;;;;;;15.32;6.50;;;;;;;;;;5077489;28;20040;-90
2021/05/23 01:12:53;;;;;;;10.13;6.72;;;;;;;;;;5076610;28;20028;-90
2021/05/23 01:15:32;;;;;;;8.93;6.63;;;;;;;;;;5077837;28;20031;-92
2021/05/23 01:18:30;;;;;;;8.98;6.90;;;;;;;;;;5077600;28;20085;-90
2021/05/23 01:20:58;;;;;;;11.00;7.28;;;;;;;;;;5079201;28;20044;-91
2021/05/23 01:23:24;;;;;;;12.40;7.72;;;;;;;;;;5079083;28;20032;-90
2021/05/23 01:25:54;;;;;;;10.90;7.97;;;;;;;;;;5096211;28;20027;-92
2021/05/23 01:28:20;;;;;;;13.05;8.50;;;;;;;;;;5079175;28;20123;-91
2021/05/23 01:30:48;;;;;;;16.67;9.40;;;;;;;;;;5079150;28;20044;-91
2021/05/23 01:33:15;;;;;;;15.82;10.73;;;;;;;;;;5079097;28;20038;-90
2021/05/23 01:35:42;;;;;;;17.17;10.25;;;;;;;;;;5096127;28;20069;-91
2021/05/23 01:38:15;;;;;;;22.23;10.25;;;;;;;;;;5079276;28;20036;-91
2021/05/23 01:40:42;;;;;;;16.75;9.85;;;;;;;;;;5097680;28;20377;-91
2021/05/23 01:43:09;;;;;;;18.85;11.18;;;;;;;;;;5083090;28;20036;-92
2021/05/23 01:45:35;;;;;;;16.63;10.50;;;;;;;;;;5083162;28;20436;-91
2021/05/23 01:48:02;;;;;;;21.92;10.70;;;;;;;;;;5099658;28;20047;-92
2021/05/23 01:50:29;;;;;;;18.10;9.27;;;;;;;;;;5099999;28;20533;-92
2021/05/23 01:52:56;;;;;;;19.20;9.63;;;;;;;;;;5100034;28;20024;-92
2021/05/23 01:55:23;;;;;;;15.27;10.00;;;;;;;;;;5099071;28;20034;-91
2021/05/23 01:57:49;;;;;;;17.42;11.20;;;;;;;;;;5081380;28;20070;-90
2021/05/23 02:00:17;;;;;;;24.25;13.23;;;;;;;;;;5081048;28;20086;-92
2021/05/23 02:02:43;;;;;;;25.10;14.30;;;;;;;;;;5080907;28;20059;-91
2021/05/23 02:05:10;;;;;;;30.95;17.90;;;;;;;;;;5081018;28;20051;-91
2021/05/23 02:07:36;;;;;;;38.33;23.52;;;;;;;;;;5080023;28;20031;-92
2021/05/23 02:10:09;;;;;;;40.78;23.50;;;;;;;;;;5080975;28;20029;-91
2021/05/23 02:12:35;;;;;;;42.05;24.52;;;;;;;;;;5081125;28;20353;-91
2021/05/23 02:15:03;;;;;;;47.30;26.85;;;;;;;;;;5080853;28;20016;-91
2021/05/23 02:17:29;;;;;;;43.53;25.90;;;;;;;;;;5080673;28;20024;-92
2021/05/23 02:19:55;;;;;;;40.08;24.27;;;;;;;;;;5080105;28;20086;-92
2021/05/23 02:22:21;;;;;;;37.50;23.80;;;;;;;;;;5079684;28;20111;-92
2021/05/23 02:24:47;;;;;;;39.75;23.52;;;;;;;;;;5080813;28;20190;-92
2021/05/23 02:27:14;;;;;;;37.53;22.33;;;;;;;;;;5079610;28;20360;-92
2021/05/23 02:29:40;;;;;;;37.35;20.80;;;;;;;;;;5080466;28;20029;-92
2021/05/23 02:32:07;;;;;;;32.75;21.08;;;;;;;;;;5080540;28;20074;-91
2021/05/23 02:34:33;;;;;;;30.17;19.20;;;;;;;;;;5080361;28;20111;-90
2021/05/23 02:37:00;;;;;;;28.52;19.75;;;;;;;;;;5079651;28;20055;-91
2021/05/23 02:39:26;;;;;;;29.83;18.55;;;;;;;;;;5080335;28;20461;-91
2021/05/23 02:41:52;;;;;;;27.50;17.50;;;;;;;;;;5080562;28;20043;-91
2021/05/23 02:44:18;;;;;;;27.48;17.40;;;;;;;;;;5080212;28;20032;-90
2021/05/23 02:46:44;;;;;;;27.60;16.40;;;;;;;;;;5079201;28;20013;-91
2021/05/23 02:49:14;;;;;;;23.48;15.90;;;;;;;;;;5080179;28;20115;-91
2021/05/23 03:51:52;;;;;;;14.55;9.02;;;;;;;;;;5136226;27;20399;-92
2021/05/23 03:54:18;;;;;;;17.00;9.70;;;;;;;;;;5135880;28;20032;-91
2021/05/23 03:56:44;;;;;;;17.35;9.48;;;;;;;;;;5135939;28;20038;-92
2021/05/23 03:59:10;;;;;;;17.00;9.25;;;;;;;;;;5135799;28;20019;-91
2021/05/23 04:01:37;;;;;;;13.52;9.00;;;;;;;;;;5135643;28;20076;-91
2021/05/23 04:04:03;;;;;;;15.30;9.25;;;;;;;;;;5135939;28;20026;-92
2021/05/23 04:06:29;;;;;;;12.93;8.88;;;;;;;;;;5135810;28;20308;-91
2021/05/23 04:08:56;;;;;;;14.57;9.75;;;;;;;;;;5135748;28;20211;-90
2021/05/23 04:11:27;;;;;;;14.60;8.82;;;;;;;;;;5135613;28;20051;-91
2021/05/23 04:13:53;;;;;;;15.90;8.88;;;;;;;;;;5135471;28;20027;-90
2021/05/23 04:16:19;;;;;;;12.30;8.57;;;;;;;;;;5135496;28;20051;-90
2021/05/23 04:18:45;;;;;;;11.98;8.77;;;;;;;;;;5117516;28;20108;-89
2021/05/23 04:21:11;;;;;;;13.88;9.38;;;;;;;;;;5135441;28;20023;-89
2021/05/23 04:23:37;;;;;;;12.88;9.10;;;;;;;;;;5135390;28;20024;-89
2021/05/23 04:26:05;;;;;;;14.80;9.07;;;;;;;;;;5135236;28;20019;-89
2021/05/23 04:28:31;;;;;;;12.25;9.38;;;;;;;;;;5135228;28;20440;-88
2021/05/23 04:30:58;;;;;;;15.85;9.32;;;;;;;;;;5117273;28;20031;-89
2021/05/23 04:33:24;;;;;;;13.98;10.60;;;;;;;;;;5135249;28;20098;-89
2021/05/23 04:35:50;;;;;;;13.60;9.20;;;;;;;;;;5134983;28;20023;-90
2021/05/23 04:38:16;;;;;;;20.80;14.50;;;;;;;;;;5135203;28;20367;-90
2021/05/23 04:40:42;;;;;;;14.40;10.30;;;;;;;;;;5127010;27;20030;-87
2021/05/23 04:43:08;;;;;;;14.93;9.82;;;;;;;;;;5126941;28;20058;-88
2021/05/23 04:45:38;;;;;;;23.33;16.08;;;;;;;;;;5135471;28;20035;-90
2021/05/23 04:48:05;;;;;;;12.02;9.60;;;;;;;;;;5135017;28;20023;-90
2021/05/23 04:50:31;;;;;;;14.70;11.18;;;;;;;;;;5116634;28;20550;-91
2021/05/23 04:52:57;;;;;;;13.55;10.68;;;;;;;;;;5103280;28;20290;-89
2021/05/23 04:55:23;;;;;;;13.15;9.50;;;;;;;;;;5121333;28;20064;-89
2021/05/23 04:57:50;;;;;;;19.13;13.82;;;;;;;;;;5121333;28;20024;-89
2021/05/23 05:00:16;;;;;;;14.05;9.48;;;;;;;;;;5120809;28;20474;-89
2021/05/23 05:02:43;;;;;;;12.45;7.57;;;;;;;;;;5103142;28;20119;-89
2021/05/23 05:05:10;;;;;;;21.52;13.50;;;;;;;;;;5121289;28;20015;-88
2021/05/23 05:07:36;;;;;;;17.52;12.45;;;;;;;;;;5121007;28;20061;-90
2021/05/23 05:13:06;;;;;;;20.40;14.73;;;;;;;;;;5120892;28;20042;-89
2021/05/23 05:15:32;;;;;;;12.45;9.48;;;;;;;;;;5120660;28;20023;-89
2021/05/23 05:17:58;;;;;;;17.70;13.85;;;;;;;;;;5120750;28;20051;-91
2021/05/23 05:20:24;;;;;;;27.20;17.00;;;;;;;;;;5120617;28;20063;-92
2021/05/23 05:22:52;;;;;;;15.07;10.25;;;;;;;;;;5120685;28;20027;-92
2021/05/23 05:25:18;;;;;;;13.75;9.45;;;;;;;;;;5120524;28;20040;-92
2021/05/23 05:27:44;;;;;;;21.05;13.82;;;;;;;;;;5102608;28;20405;-91
2021/05/23 05:30:10;;;;;;;14.15;9.73;;;;;;;;;;5120259;28;20412;-90
2021/05/23 05:32:37;;;;;;;20.00;14.93;;;;;;;;;;5120556;28;20031;-92
2021/05/23 05:35:03;;;;;;;17.15;11.25;;;;;;;;;;5102271;28;20030;-91
2021/05/23 05:37:29;;;;;;;20.23;11.70;;;;;;;;;;5120344;28;20397;-92
2021/05/23 05:39:55;;;;;;;15.35;10.35;;;;;;;;;;5101727;28;20134;-91
2021/05/23 05:42:21;;;;;;;15.07;11.30;;;;;;;;;;5120054;28;20023;-92
2021/05/23 05:44:47;;;;;;;15.52;11.40;;;;;;;;;;5102213;28;20169;-91
2021/05/23 05:47:13;;;;;;;13.05;8.30;;;;;;;;;;5119939;28;20286;-90
2021/05/23 05:49:39;;;;;;;16.52;10.70;;;;;;;;;;5120022;28;20085;-91
2021/05/23 05:52:06;;;;;;;18.98;14.75;;;;;;;;;;5102076;28;20503;-90
2021/05/23 05:54:32;;;;;;;16.05;9.70;;;;;;;;;;5101626;28;20134;-89
2021/05/23 05:57:00;;;;;;;26.42;17.23;;;;;;;;;;5120003;28;20047;-92
2021/05/23 05:59:26;;;;;;;14.93;10.90;;;;;;;;;;5120039;28;20032;-92
2021/05/23 06:01:52;;;;;;;19.10;13.50;;;;;;;;;;5119685;28;20069;-92
2021/05/23 06:04:18;;;;;;;15.27;11.65;;;;;;;;;;5118676;28;20024;-93
2021/05/23 06:06:44;;;;;;;18.98;14.48;;;;;;;;;;5101732;28;20446;-91
2021/05/23 06:09:11;;;;;;;17.17;12.20;;;;;;;;;;5119533;28;20026;-92
2021/05/23 06:11:37;;;;;;;17.08;11.88;;;;;;;;;;5119445;28;20419;-90
2021/05/23 06:14:03;;;;;;;14.95;11.10;;;;;;;;;;5119729;28;20023;-90
2021/05/23 06:16:29;;;;;;;18.20;13.35;;;;;;;;;;5101645;28;20024;-91
2021/05/23 06:18:55;;;;;;;15.43;10.90;;;;;;;;;;5101562;28;20019;-90
2021/05/23 06:21:21;;;;;;;15.13;10.23;;;;;;;;;;5119502;28;20038;-89
2021/05/23 06:23:47;;;;;;;15.65;12.27;;;;;;;;;;5119385;28;20103;-88
2021/05/23 06:26:14;;;;;;;14.38;9.50;;;;;;;;;;5101251;28;20028;-90
2021/05/23 06:28:43;;;;;;;19.48;14.57;;;;;;;;;;5119374;28;20023;-90
2021/05/23 06:31:10;;;;;;;12.93;8.77;;;;;;;;;;5119448;28;20023;-89
2021/05/23 06:33:36;;;;;;;9.90;7.60;;;;;;;;;;5119350;28;20031;-90
2021/05/23 06:36:02;;;;;;;10.18;7.18;;;;;;;;;;5101219;28;20138;-89
2021/05/23 06:38:28;;;;;;;9.45;6.18;;;;;;;;;;5119077;28;20051;-87
2021/05/23 06:40:54;;;;;;;13.82;7.45;;;;;;;;;;5100560;28;20420;-90
2021/05/23 06:43:20;;;;;;;10.30;7.07;;;;;;;;;;5119011;28;20121;-89
2021/05/23 06:45:46;;;;;;;128.05;96.07;;;;;;;;;;5119052;28;20027;-89
2021/05/23 06:48:14;;;;;;;39.42;29.38;;;;;;;;;;5118824;28;20023;-89
2021/05/23 06:50:40;;;;;;;68.95;49.05;;;;;;;;;;5118861;28;20055;-89
2021/05/23 06:53:06;;;;;;;78.55;55.53;;;;;;;;;;5118938;28;20348;-90
2021/05/23 06:55:33;;;;;;;71.18;49.40;;;;;;;;;;5118377;28;20024;-91
2021/05/23 06:57:59;;;;;;;61.58;44.78;;;;;;;;;;5100849;28;20020;-92
2021/05/23 07:00:25;;;;;;;32.05;22.55;;;;;;;;;;5100635;28;20409;-90
2021/05/23 07:02:51;;;;;;;87.82;57.88;;;;;;;;;;5118817;28;20316;-90
2021/05/23 07:05:17;;;;;;;57.72;39.13;;;;;;;;;;5118725;28;20027;-90
2021/05/23 07:07:44;;;;;;;36.22;25.33;;;;;;;;;;5100793;28;20031;-91
2021/05/23 07:10:10;;;;;;;21.52;13.73;;;;;;;;;;5100568;28;20110;-91
2021/05/23 07:12:36;;;;;;;38.63;28.05;;;;;;;;;;5118480;28;20011;-90
2021/05/23 07:15:02;;;;;;;13.23;9.77;;;;;;;;;;5118004;28;20054;-92
2021/05/23 07:17:28;;;;;;;93.70;68.95;;;;;;;;;;5118366;28;20016;-91
2021/05/23 07:19:55;;;;;;;29.38;20.15;;;;;;;;;;5099924;28;20039;-92
2021/05/23 07:22:21;;;;;;;47.72;33.72;;;;;;;;;;5118413;28;20071;-91
2021/05/23 07:24:47;;;;;;;18.38;12.05;;;;;;;;;;5118459;28;20027;-91
2021/05/23 07:27:14;;;;;;;40.95;30.50;;;;;;;;;;5118204;28;20027;-93
2021/05/23 07:29:40;;;;;;;24.17;15.40;;;;;;;;;;5118129;28;20149;-92
2021/05/23 07:32:06;;;;;;;36.08;22.48;;;;;;;;;;5118057;28;20412;-92
2021/05/23 07:34:32;;;;;;;10.20;6.57;;;;;;;;;;5118093;28;20043;-91
2021/05/23 07:36:58;;;;;;;18.33;12.35;;;;;;;;;;5118147;28;20059;-90
2021/05/23 07:39:25;;;;;;;6.28;2.65;;;;;;;;;;5099512;28;20035;-92
2021/05/23 07:41:51;;;;;;;18.70;11.63;;;;;;;;;;5100198;28;20024;-92
2021/05/23 07:44:17;;;;;;;17.42;11.32;;;;;;;;;;5117887;28;20290;-90
2021/05/23 07:46:44;;;;;;;35.10;15.35;;;;;;;;;;5100441;28;20023;-89
2021/05/23 07:49:10;;;;;;;25.38;17.17;;;;;;;;;;5099992;28;20027;-91
2021/05/23 07:51:36;;;;;;;31.63;22.05;;;;;;;;;;5117999;28;20076;-93
2021/05/23 07:54:03;;;;;;;16.15;11.20;;;;;;;;;;5118129;28;20019;-94
2021/05/23 07:56:29;;;;;;;25.15;15.65;;;;;;;;;;5100077;28;20111;-93
2021/05/23 07:58:55;;;;;;;12.50;7.15;;;;;;;;;;5100120;28;20420;-92
2021/05/23 08:01:21;;;;;;;15.57;9.80;;;;;;;;;;5119292;28;20142;-89
2021/05/23 08:03:47;;;;;;;22.00;14.18;;;;;;;;;;5118947;28;20016;-92
2021/05/23 08:06:14;;;;;;;22.35;13.95;;;;;;;;;;5100520;28;20057;-89
2021/05/23 08:08:40;;;;;;;15.82;10.35;;;;;;;;;;5100278;28;20027;-90
2021/05/23 08:11:06;;;;;;;27.38;9.75;;;;;;;;;;5118528;28;20048;-91
2021/05/23 08:13:32;;;;;;;22.63;15.27;;;;;;;;;;5100368;28;20040;-92
2021/05/23 11:22:19;;;;;;;15.65;10.15;;;;;;;;;;5115286;27;20422;-84
2021/05/23 11:24:51;;;;;;;14.25;8.65;;;;;;;;;;5112748;28;20028;-83
2021/05/23 11:30:21;;;;;;;17.83;11.65;;;;;;;;;;5115469;28;20367;-87
2021/05/23 11:32:47;;;;;;;14.70;9.82;;;;;;;;;;5113856;28;20024;-85
2021/05/23 11:35:22;;;;;;;16.73;11.23;;;;;;;;;;5102320;28;20028;-84
2021/05/23 11:37:53;;;;;;;9.82;5.53;;;;;;;;;;5107568;28;20114;-85
2021/05/23 11:40:19;;;;;;;10.95;4.90;;;;;;;;;;5115516;28;20341;-86
2021/05/23 11:42:46;;;;;;;13.98;7.57;;;;;;;;;;5092042;28;20071;-86
2021/05/23 11:45:25;;;;;;;13.75;8.50;;;;;;;;;;5083937;28;20035;-86
2021/05/23 11:47:52;;;;;;;22.00;11.32;;;;;;;;;;5093782;28;20408;-85
2021/05/23 11:50:25;;;;;;;9.40;5.30;;;;;;;;;;5094635;28;20039;-85
2021/05/23 11:52:55;;;;;;;22.13;11.13;;;;;;;;;;5093757;28;20023;-86
2021/05/23 11:55:22;;;;;;;18.93;7.73;;;;;;;;;;5094667;28;20067;-86
2021/05/23 11:57:50;;;;;;;12.93;5.47;;;;;;;;;;5094306;28;20269;-88
2021/05/23 12:00:21;;;;;;;11.15;6.25;;;;;;;;;;5079608;28;20078;-89
2021/05/23 12:02:47;;;;;;;9.32;4.57;;;;;;;;;;5091198;28;20044;-86
2021/05/23 12:05:14;;;;;;;12.63;4.80;;;;;;;;;;5077653;28;20021;-86
2021/05/23 12:07:41;;;;;;;7.70;4.43;;;;;;;;;;5094025;28;20017;-83
2021/05/23 12:10:08;;;;;;;5.30;2.78;;;;;;;;;;5094409;28;20032;-84
2021/05/23 12:12:34;;;;;;;4.25;2.45;;;;;;;;;;5092491;28;20052;-82
2021/05/23 12:15:00;;;;;;;9.93;3.83;;;;;;;;;;5093125;28;20028;-81
2021/05/23 12:17:26;;;;;;;4.32;1.90;;;;;;;;;;5093832;28;20032;-84
2021/05/23 12:19:54;;;;;;;4.40;1.85;;;;;;;;;;5093160;28;20027;-80
2021/05/23 12:22:21;;;;;;;6.20;2.60;;;;;;;;;;5092311;28;20065;-84
2021/05/23 12:24:49;;;;;;;7.38;3.83;;;;;;;;;;5093673;28;20024;-79
2021/05/23 12:27:25;;;;;;;8.70;2.90;;;;;;;;;;5093463;28;20020;-80
2021/05/23 12:29:52;;;;;;;9.25;1.77;;;;;;;;;;5093138;28;20303;-80
2021/05/23 12:32:18;;;;;;;3.20;1.50;;;;;;;;;;5087125;28;20376;-84
2021/05/23 12:34:44;;;;;;;6.10;1.77;;;;;;;;;;5080049;28;20155;-88
2021/05/23 12:37:11;;;;;;;6.50;1.83;;;;;;;;;;5081247;28;20470;-87
2021/05/23 12:39:37;;;;;;;6.90;1.88;;;;;;;;;;5080258;28;20029;-90
2021/05/23 12:42:04;;;;;;;5.60;1.95;;;;;;;;;;5079579;28;20361;-86
2021/05/23 12:44:31;;;;;;;5.40;1.60;;;;;;;;;;5080557;28;20029;-86
2021/05/23 12:47:08;;;;;;;8.77;3.13;;;;;;;;;;5080061;28;20017;-86
2021/05/23 12:49:36;;;;;;;6.28;2.65;;;;;;;;;;5080148;28;20024;-85
2021/05/23 12:52:02;;;;;;;13.05;4.68;;;;;;;;;;5080165;28;20037;-86
2021/05/23 12:54:30;;;;;;;5.43;1.98;;;;;;;;;;5080088;28;20028;-87
2021/05/23 12:56:57;;;;;;;9.13;2.60;;;;;;;;;;5078935;28;20029;-86
2021/05/23 12:59:23;;;;;;;5.60;2.15;;;;;;;;;;5078899;28;20029;-86
2021/05/23 13:01:50;;;;;;;5.53;1.52;;;;;;;;;;5080069;28;20032;-86
2021/05/23 13:04:21;;;;;;;2.97;1.45;;;;;;;;;;5078874;28;20023;-86
2021/05/23 13:06:55;;;;;;;8.63;2.30;;;;;;;;;;5079843;28;20024;-86
2021/05/23 13:09:22;;;;;;;9.80;4.25;;;;;;;;;;5078849;28;20020;-87
2021/05/23 13:11:52;;;;;;;13.57;6.85;;;;;;;;;;5079604;28;20035;-87
2021/05/23 13:14:19;;;;;;;5.80;2.72;;;;;;;;;;5079847;28;20029;-87
2021/05/23 13:16:51;;;;;;;4.35;2.38;;;;;;;;;;5079432;28;20036;-86
2021/05/23 13:19:18;;;;;;;5.10;2.10;;;;;;;;;;5079606;28;20036;-87
2021/05/23 13:21:44;;;;;;;6.25;1.95;;;;;;;;;;5079181;28;20056;-86
2021/05/23 13:24:10;;;;;;;5.25;2.30;;;;;;;;;;5079466;28;20021;-86
2021/05/23 13:26:46;;;;;;;5.15;1.73;;;;;;;;;;5079325;28;20024;-86
2021/05/23 13:29:12;;;;;;;7.45;1.95;;;;;;;;;;5079556;28;20043;-87
2021/05/23 13:31:38;;;;;;;6.80;1.80;;;;;;;;;;5079350;28;20414;-87
2021/05/23 13:34:04;;;;;;;8.75;2.15;;;;;;;;;;5079558;28;20028;-87
2021/05/23 13:36:30;;;;;;;5.82;2.60;;;;;;;;;;5079082;28;20032;-87
2021/05/23 13:38:56;;;;;;;3.28;1.70;;;;;;;;;;5079042;28;20020;-87
2021/05/23 13:41:22;;;;;;;4.90;2.42;;;;;;;;;;5078149;28;20502;-87
2021/05/23 13:43:48;;;;;;;4.38;2.00;;;;;;;;;;5078254;28;20035;-86
2021/05/23 13:46:14;;;;;;;4.43;1.75;;;;;;;;;;5079258;28;20044;-86
2021/05/23 13:48:40;;;;;;;6.97;3.10;;;;;;;;;;5078009;28;20025;-87
2021/05/23 13:51:06;;;;;;;6.18;3.05;;;;;;;;;;5078954;28;20024;-87
2021/05/23 13:53:32;;;;;;;10.15;4.55;;;;;;;;;;5078871;28;20032;-87
2021/05/23 13:55:59;;;;;;;8.98;5.15;;;;;;;;;;5078686;28;20456;-87
2021/05/23 13:58:25;;;;;;;7.55;4.47;;;;;;;;;;5078905;28;20030;-87
2021/05/23 14:00:51;;;;;;;6.80;3.67;;;;;;;;;;5078718;28;20020;-87
2021/05/23 14:03:18;;;;;;;4.38;2.25;;;;;;;;;;5078632;28;20025;-86
2021/05/23 14:05:52;;;;;;;7.68;4.45;;;;;;;;;;5078742;28;20062;-86
2021/05/23 14:08:18;;;;;;;6.95;1.88;;;;;;;;;;5078484;28;20180;-86
2021/05/23 14:10:44;;;;;;;7.55;2.15;;;;;;;;;;5077638;28;20050;-86
2021/05/23 14:13:10;;;;;;;8.75;2.10;;;;;;;;;;5078447;28;20070;-86
2021/05/23 14:15:37;;;;;;;10.02;5.32;;;;;;;;;;5078270;28;20029;-87
2021/05/23 14:18:04;;;;;;;6.55;4.30;;;;;;;;;;5077807;28;20041;-86
2021/05/23 14:20:30;;;;;;;7.18;3.33;;;;;;;;;;5077857;28;20059;-87
2021/05/23 14:22:56;;;;;;;6.47;1.80;;;;;;;;;;5077436;28;20012;-87
2021/05/23 14:25:23;;;;;;;7.30;2.20;;;;;;;;;;5078340;28;20031;-86
2021/05/23 14:27:50;;;;;;;6.50;2.20;;;;;;;;;;5077726;28;20410;-87
2021/05/23 14:30:16;;;;;;;6.45;1.83;;;;;;;;;;5077362;28;20024;-87
2021/05/23 14:32:43;;;;;;;3.03;1.83;;;;;;;;;;5077978;28;20411;-86
2021/05/23 14:35:10;;;;;;;6.95;1.85;;;;;;;;;;5078076;28;20032;-87
2021/05/23 14:37:36;;;;;;;3.13;1.52;;;;;;;;;;5077198;28;20024;-87
2021/05/23 14:40:03;;;;;;;4.22;1.90;;;;;;;;;;5077107;28;20028;-87
2021/05/23 14:42:29;;;;;;;6.75;1.90;;;;;;;;;;5078051;28;20021;-88
2021/05/23 14:44:55;;;;;;;9.38;1.50;;;;;;;;;;5077942;28;20155;-87
2021/05/23 14:47:22;;;;;;;6.15;1.60;;;;;;;;;;5077879;28;20028;-87
2021/05/23 14:49:53;;;;;;;6.35;2.03;;;;;;;;;;5077372;28;20017;-87
2021/05/23 14:52:19;;;;;;;;;;;;;;;;;;5077317;28;20020;-88
2021/05/23 14:54:46;;;;;;;5.43;1.77;;;;;;;;;;5077591;28;19904;-87
2021/05/23 14:57:12;;;;;;;3.88;1.90;;;;;;;;;;5077965;28;20023;-86
2021/05/23 14:59:38;;;;;;;5.63;1.80;;;;;;;;;;5077469;28;20086;-87
2021/05/23 15:02:05;;;;;;;4.90;2.10;;;;;;;;;;5077406;28;20058;-86
2021/05/23 15:04:31;;;;;;;5.40;1.60;;;;;;;;;;5077775;28;20414;-87
2021/05/23 15:06:58;;;;;;;8.82;1.92;;;;;;;;;;5077586;28;20031;-88
2021/05/23 15:09:24;;;;;;;4.43;1.70;;;;;;;;;;5077632;28;20020;-88
2021/05/23 15:11:50;;;;;;;7.13;1.70;;;;;;;;;;5076669;28;20025;-88
2021/05/23 15:14:16;;;;;;;4.35;1.80;;;;;;;;;;5077645;28;20025;-88
2021/05/23 15:16:42;;;;;;;6.00;1.88;;;;;;;;;;5077015;28;20082;-88
2021/05/23 15:19:08;;;;;;;6.07;1.67;;;;;;;;;;5076611;28;20356;-88
2021/05/23 15:21:34;;;;;;;9.30;1.70;;;;;;;;;;5077325;28;20131;-87
2021/05/23 15:24:00;;;;;;;9.45;1.85;;;;;;;;;;5077415;28;20021;-88
2021/05/23 15:26:45;;;;;;;3.97;1.58;;;;;;;;;;5077784;28;20045;-88
2021/05/23 15:31:57;;;;;;;6.75;1.90;;;;;;;;;;5077734;28;20043;-88
2021/05/23 15:34:25;;;;;;;10.27;2.25;;;;;;;;;;5076520;28;20334;-88
2021/05/23 15:36:52;;;;;;;7.13;2.33;;;;;;;;;;5077492;28;20021;-89
2021/05/23 15:39:18;;;;;;;6.68;1.70;;;;;;;;;;5077190;28;20032;-88
2021/05/23 15:41:44;;;;;;;5.03;1.70;;;;;;;;;;5077403;28;20028;-88
2021/05/23 15:44:11;;;;;;;4.90;1.92;;;;;;;;;;5077012;28;20337;-87
2021/05/23 15:46:37;;;;;;;4.80;2.30;;;;;;;;;;5077437;28;20020;-88
2021/05/23 15:49:03;;;;;;;23.33;11.70;;;;;;;;;;5077067;28;20071;-87
2021/05/23 15:51:29;;;;;;;15.50;7.65;;;;;;;;;;5077433;28;20032;-88
2021/05/23 15:53:56;;;;;;;30.13;3.38;;;;;;;;;;5077145;28;20070;-88
2021/05/23 15:56:23;;;;;;;37.65;3.58;;;;;;;;;;5077262;28;20029;-88
2021/05/23 15:58:49;;;;;;;27.73;2.83;;;;;;;;;;5076385;28;20043;-88
2021/05/23 16:01:15;;;;;;;25.60;1.83;;;;;;;;;;5076764;28;20051;-88
2021/05/23 16:03:43;;;;;;;11.85;3.70;;;;;;;;;;5077365;28;20017;-88
2021/05/23 16:06:09;;;;;;;11.00;2.17;;;;;;;;;;5077166;28;20021;-88
2021/05/23 16:08:35;;;;;;;12.15;1.48;;;;;;;;;;5079888;28;20409;-88
2021/05/23 16:11:01;;;;;;;5.53;1.27;;;;;;;;;;5080864;28;20402;-88
2021/05/23 16:13:28;;;;;;;5.90;1.30;;;;;;;;;;5079834;28;20411;-87
2021/05/23 16:15:54;;;;;;;8.05;1.48;;;;;;;;;;5080437;28;20025;-88
2021/05/23 16:18:20;;;;;;;10.07;1.20;;;;;;;;;;5080607;28;20048;-88
2021/05/23 16:20:46;;;;;;;7.05;1.83;;;;;;;;;;5080334;28;20052;-88
2021/05/23 16:23:12;;;;;;;3.92;1.05;;;;;;;;;;5080656;28;20034;-88
2021/05/23 16:25:38;;;;;;;5.15;1.38;;;;;;;;;;5080560;28;20128;-88
2021/05/23 16:28:04;;;;;;;3.45;1.30;;;;;;;;;;5079780;28;20028;-88
2021/05/23 16:30:30;;;;;;;8.85;5.97;;;;;;;;;;5080573;28;20032;-88
2021/05/23 16:32:56;;;;;;;2.75;0.90;;;;;;;;;;5080731;28;20028;-87
2021/05/23 16:35:22;;;;;;;7.03;1.30;;;;;;;;;;5080284;28;20071;-88
2021/05/23 16:37:48;;;;;;;5.63;1.10;;;;;;;;;;5079783;28;20032;-88
2021/05/23 16:40:15;;;;;;;5.22;0.75;;;;;;;;;;5079552;28;20410;-87
2021/05/23 16:42:41;;;;;;;2.92;1.00;;;;;;;;;;5080160;28;20401;-87
2021/05/23 16:45:08;;;;;;;5.68;0.73;;;;;;;;;;5080398;28;20055;-87
2021/05/23 16:47:34;;;;;;;1.42;0.70;;;;;;;;;;5080251;28;20016;-88
2021/05/23 16:50:00;;;;;;;8.23;1.88;;;;;;;;;;5079469;28;20033;-88
2021/05/23 16:52:26;;;;;;;2.05;0.70;;;;;;;;;;5080062;28;20070;-88
2021/05/23 16:54:52;;;;;;;1.10;0.70;;;;;;;;;;5079820;28;20111;-88
2021/05/23 16:57:18;;;;;;;2.38;0.73;;;;;;;;;;5080327;28;20033;-86
2021/05/23 16:59:44;;;;;;;4.53;0.73;;;;;;;;;;5080141;28;20100;-86
2021/05/23 17:02:13;;;;;;;5.18;0.60;;;;;;;;;;5079943;28;20032;-86
2021/05/23 17:04:39;;;;;;;1.35;0.40;;;;;;;;;;5079833;28;20124;-87
2021/05/23 17:07:05;;;;;;;2.97;0.47;;;;;;;;;;5080090;28;20013;-87
2021/05/23 17:09:31;;;;;;;1.70;0.90;;;;;;;;;;5078848;28;20021;-88
2021/05/23 17:11:59;;;;;;;2.05;0.40;;;;;;;;;;5079616;28;20438;-87
2021/05/23 17:14:27;;;;;;;6.07;0.75;;;;;;;;;;5080178;28;20103;-87
2021/05/23 17:16:53;;;;;;;2.80;0.50;;;;;;;;;;5078966;28;20338;-90
2021/05/23 17:19:19;;;;;;;1.33;0.40;;;;;;;;;;5079357;28;20031;-89
2021/05/23 17:21:45;;;;;;;2.72;0.60;;;;;;;;;;5079589;28;20052;-88
2021/05/23 17:24:11;;;;;;;2.22;0.60;;;;;;;;;;5079579;28;20107;-89
2021/05/23 17:26:38;;;;;;;3.00;0.60;;;;;;;;;;5079589;28;20016;-88
2021/05/23 17:29:04;;;;;;;2.47;0.60;;;;;;;;;;5078678;28;20012;-87
2021/05/23 17:31:30;;;;;;;1.27;0.55;;;;;;;;;;5079242;28;20030;-89
2021/05/23 17:33:56;;;;;;;1.15;0.60;;;;;;;;;;5078669;28;20059;-88
2021/05/23 17:36:22;;;;;;;4.22;0.60;;;;;;;;;;5078694;28;20474;-92
2021/05/23 17:38:48;;;;;;;4.97;0.70;;;;;;;;;;5079325;28;20027;-84
2021/05/23 17:41:14;;;;;;;1.52;0.50;;;;;;;;;;5077758;28;20108;-87
2021/05/23 17:43:40;;;;;;;1.00;0.50;;;;;;;;;;5077934;28;20016;-88
2021/05/23 17:46:06;;;;;;;1.50;0.57;;;;;;;;;;5075756;28;20028;-88
2021/05/23 17:48:33;;;;;;;1.70;0.63;;;;;;;;;;5059258;28;20017;-87
2021/05/23 17:51:00;;;;;;;3.22;1.50;;;;;;;;;;5060309;28;20033;-87
2021/05/23 17:53:26;;;;;;;1.73;0.77;;;;;;;;;;5071930;28;20064;-87
2021/05/23 17:55:52;;;;;;;2.40;0.63;;;;;;;;;;5078821;28;20341;-88
2021/05/23 18:01:22;;;;;;;1.27;0.90;;;;;;;;;;5078991;28;20162;-88
2021/05/23 18:03:50;;;;;;;2.35;1.00;;;;;;;;;;5078768;28;20023;-88
2021/05/23 18:06:16;;;;;;;5.20;1.52;;;;;;;;;;5078772;28;20027;-90
2021/05/23 18:08:45;;;;;;;2.20;0.90;;;;;;;;;;5077831;28;20062;-87
2021/05/23 18:14:15;;;;;;;3.67;1.02;;;;;;;;;;5077341;28;20090;-88
2021/05/23 18:16:42;;;;;;;3.85;1.30;;;;;;;;;;5078761;28;20024;-88
2021/05/23 18:19:08;;;;;;;5.15;0.90;;;;;;;;;;5076804;28;20027;-88
2021/05/23 18:21:34;;;;;;;2.78;0.90;;;;;;;;;;5058102;28;20052;-88
2021/05/23 18:24:02;;;;;;;4.75;1.00;;;;;;;;;;5058521;28;20032;-88
2021/05/23 18:26:29;;;;;;;1.45;1.10;;;;;;;;;;5058604;28;20044;-88
2021/05/23 18:28:55;;;;;;;1.25;1.00;;;;;;;;;;5057152;28;20044;-88
2021/05/23 18:31:21;;;;;;;2.17;1.98;;;;;;;;;;5057630;28;20112;-89
2021/05/23 18:33:47;;;;;;;1.90;1.40;;;;;;;;;;5058513;28;20100;-88
2021/05/23 18:36:14;;;;;;;8.40;5.13;;;;;;;;;;5057228;28;20021;-88
2021/05/23 18:38:41;;;;;;;4.28;3.88;;;;;;;;;;5057995;28;20029;-89
2021/05/23 18:41:07;;;;;;;2.58;1.08;;;;;;;;;;5056346;28;20033;-88
2021/05/23 18:46:37;;;;;;;2.92;1.25;;;;;;;;;;5078171;28;20090;-88
2021/05/23 18:49:03;;;;;;;4.40;1.50;;;;;;;;;;5077836;28;20044;-88
2021/05/23 18:51:29;;;;;;;2.08;1.02;;;;;;;;;;5077980;28;20471;-88
2021/05/23 18:53:55;;;;;;;2.92;1.70;;;;;;;;;;5077480;28;20029;-88
2021/05/23 18:56:21;;;;;;;2.28;1.50;;;;;;;;;;5077512;28;20025;-88